Latest Weather Observations for Moorabbin Airport

IDV60801

Issued at 5:52 am EDT Saturday 19 October 2019 (issued every 10 minutes, with the page automatically refreshed every 10 minutes)

About weather observations | Map of weather stations | Latest weather observations for VIC | Other Formats
Station Details ID: 086077 Name: MOORABBIN AIRPORT Lat: -37.98 Lon: 145.10 Height: 12.1 m
Data from the previous 72 hours. | See also: Recent months at Moorabbin Airport
Date/Time
EDT
Temp
°C
App
Temp
°C
Dew
Point
°C
Rel
Hum
%
Delta-T
°C
Wind Press
QNH
hPa
Press
MSL
hPa
Rain since
9am
mm
Dir  Spd
km/h
Gust
km/h
Spd
kts
Gust
kts
19/05:30am 10.4 4.8 5.2 70 2.4 W 24 44 13 24 1012.7 1012.7 0.8
19/05:00am 9.8 5.1 5.0 72 2.2 WNW 19 30 10 16 1012.6 1012.6 0.8
19/04:30am 10.4 5.6 5.4 71 2.3 WNW 20 32 11 17 1012.6 1012.6 0.8
19/04:00am 10.3 5.4 5.3 71 2.3 WNW 20 32 11 17 1012.6 1012.6 0.8
19/03:30am 10.4 5.8 5.4 71 2.3 WNW 19 26 10 14 1012.7 1012.7 0.8
19/03:00am 10.4 6.6 6.0 74 2.0 NW 15 20 8 11 1012.7 1012.7 0.8
19/02:30am 10.6 6.9 6.4 75 2.0 WNW 15 24 8 13 1012.9 1012.9 0.8
19/02:00am 11.0 6.3 6.2 72 2.2 W 20 30 11 16 1013.1 1013.1 0.8
19/01:30am 11.2 6.7 6.3 72 2.3 WNW 19 28 10 15 1013.2 1013.2 0.8
19/01:00am 11.8 7.9 6.9 72 2.3 W 17 24 9 13 1013.3 1013.3 0.8
19/12:30am 11.8 7.9 6.9 72 2.3 W 17 24 9 13 1013.5 1013.5 0.8
19/12:00am 12.1 8.3 7.4 73 2.3 W 17 28 9 15 1013.4 1013.4 0.8
 
Date/Time
EDT
Temp
°C
App
Temp
°C
Dew
Point
°C
Rel
Hum
%
Delta-T
°C
Wind Press
QNH
hPa
Press
MSL
hPa
Rain since
9am
mm
Dir  Spd
km/h
Gust
km/h
Spd
kts
Gust
kts
18/11:30pm 12.1 7.8 7.8 75 2.1 W 20 28 11 15 1013.4 1013.4 0.8
18/11:00pm 12.1 8.5 8.2 77 1.9 WNW 17 26 9 14 1013.7 1013.7 0.8
18/10:30pm 11.9 8.4 8.9 82 1.5 WNW 17 24 9 13 1013.4 1013.4 0.8
18/10:00pm 11.8 7.9 9.4 85 1.2 W 20 30 11 16 1013.5 1013.5 0.8
18/09:30pm 11.5 6.1 9.6 88 1.0 W 28 41 15 22 1013.4 1013.4 0.2
18/09:25pm 11.8 6.3 9.2 84 1.3 W 28 44 15 24 1013.3 1013.3 0.2
18/09:00pm 12.9 6.7 9.2 78 1.9 WSW 32 52 17 28 1012.7 1012.7 0.2
18/08:56pm 13.1 6.9 9.5 79 1.8 WSW 32 52 17 28 1012.5 1012.5 0.2
18/08:44pm 13.1 6.9 10.1 82 1.5 WSW 33 50 18 27 1012.3 1012.3 0.2
18/08:30pm 13.2 6.6 10.0 81 1.6 WSW 35 54 19 29 1011.6 1011.6 0.2
18/08:00pm 13.8 6.7 9.6 76 2.2 WSW 37 57 20 31 1011.2 1011.2 0.2
18/07:43pm 15.8 10.6 9.0 64 3.5 W 26 46 14 25 1010.2 1010.2 0.2
18/07:30pm 19.7 14.4 5.0 38 7.2 WNW 22 30 12 16 1009.4 1009.4 0.2
18/07:00pm 19.9 14.1 4.4 36 7.5 NW 24 35 13 19 1008.8 1008.8 0.2
18/06:32pm 20.6 13.8 2.9 31 8.3 NW 28 48 15 26 1008.7 1008.7 0.2
18/06:30pm 20.5 14.1 3.3 32 8.1 NW 26 39 14 21 1008.7 1008.7 0.2
18/06:06pm 20.5 13.8 3.7 33 8.0 NW 28 46 15 25 1008.8 1008.8 0.2
18/06:00pm 20.4 13.2 3.2 32 8.1 NW 30 46 16 25 1008.8 1008.8 0.2
18/05:53pm 20.6 13.8 2.9 31 8.3 NW 28 46 15 25 1008.8 1008.8 0.2
18/05:30pm 20.9 14.3 4.0 33 8.1 NW 28 41 15 22 1008.9 1008.9 0.2
18/05:03pm 20.7 13.2 3.4 32 8.2 NW 32 52 17 28 1009.2 1009.2 0.2
18/05:00pm 20.8 13.9 4.4 34 8.0 NW 30 43 16 23 1009.3 1009.3 0.2
18/04:30pm 20.4 12.4 4.0 34 7.9 NW 35 59 19 32 1009.5 1009.5 0.2
18/04:01pm 19.9 12.0 4.4 36 7.5 NW 35 54 19 29 1009.6 1009.6 0.2
18/04:00pm 20.1 12.2 4.6 36 7.5 NW 35 50 19 27 1009.7 1009.7 0.2
18/03:30pm 21.0 12.8 5.0 35 7.9 NW 37 56 20 30 1009.7 1009.7 0.2
18/03:00pm 20.8 12.4 5.6 37 7.6 NNW 39 61 21 33 1010.3 1010.3 0.2
18/02:30pm 20.1 12.5 5.7 39 7.1 NW 35 56 19 30 1010.7 1010.7 0.2
18/02:27pm 20.1 12.9 5.7 39 7.1 NW 33 56 18 30 1010.7 1010.7 0.2
18/02:00pm 18.9 12.6 5.7 42 6.5 NW 28 44 15 24 1011.3 1011.3 0.2
18/01:30pm 18.7 11.8 6.5 45 6.1 NW 32 52 17 28 1011.8 1011.8 0.2
18/01:03pm 17.5 9.7 4.8 43 6.1 NW 35 56 19 30 1012.1 1012.1 0.2
18/01:00pm 18.0 10.8 5.9 45 5.9 NW 33 48 18 26 1012.4 1012.4 0.2
18/12:33pm 17.2 10.7 4.9 44 5.9 NW 28 46 15 25 1012.6 1012.6 0.2
18/12:30pm 17.9 11.6 5.8 45 5.9 NNW 28 43 15 23 1012.6 1012.6 0.2
18/12:02pm 17.3 11.0 5.6 46 5.7 NW 28 46 15 25 1013.2 1013.2 0.2
18/12:00pm 18.2 12.1 6.7 47 5.7 NW 28 41 15 22 1013.4 1013.4 0.2
18/11:30am 15.8 9.3 4.5 47 5.3 NW 28 43 15 23 1014.0 1014.0 0.2
18/11:00am 14.7 8.3 5.2 53 4.5 NNW 28 37 15 20 1014.4 1014.4 0.2
18/10:30am 14.5 8.8 4.8 52 4.5 NNW 24 35 13 19 1014.7 1014.7 0.2
18/10:00am 13.4 7.3 4.6 55 4.0 NNW 26 39 14 21 1015.0 1015.0 0.2
18/09:30am 12.2 5.6 4.4 59 3.5 N 28 39 15 21 1015.4 1015.4 0.2
18/09:00am 11.3 6.3 4.7 64 3.0 N 20 33 11 18 1015.5 1015.5 3.2
18/08:30am 10.0 3.8 4.4 68 2.5 N 26 33 14 18 1015.7 1015.7 3.2
18/08:00am 9.2 4.8 4.6 73 2.0 NNW 17 22 9 12 1015.6 1015.6 3.2
18/07:30am 8.0 4.3 4.6 79 1.5 N 13 17 7 9 1015.6 1015.6 3.2
18/07:00am 7.0 3.2 4.1 82 1.2 N 13 17 7 9 1015.5 1015.5 3.2
18/06:30am 7.0 3.6 4.0 81 1.3 NNW 11 15 6 8 1015.5 1015.5 3.2
18/06:00am 7.4 3.7 4.2 80 1.4 N 13 15 7 8 1015.4 1015.4 3.2
18/05:30am 7.6 4.5 3.8 77 1.6 NNW 9 11 5 6 1015.5 1015.5 3.2
18/05:00am 7.7 4.7 4.1 78 1.6 NNW 9 13 5 7 1015.4 1015.4 3.2
18/04:30am 8.2 4.7 3.7 73 1.9 NNW 11 15 6 8 1015.6 1015.6 3.2
18/04:00am 8.1 5.0 3.8 74 1.9 NNW 9 13 5 7 1015.7 1015.7 3.2
18/03:30am 9.0 5.2 3.8 70 2.3 NW 13 17 7 9 1016.0 1016.0 3.2
18/03:00am 9.4 5.6 3.8 68 2.4 NW 13 22 7 12 1016.2 1016.2 3.2
18/02:30am 9.7 5.9 3.9 67 2.5 NW 13 20 7 11 1016.1 1016.1 3.2
18/02:00am 10.1 5.6 4.3 67 2.6 WNW 17 24 9 13 1016.2 1016.2 3.2
18/01:30am 10.3 5.9 4.9 69 2.4 WNW 17 28 9 15 1016.4 1016.4 3.2
18/01:00am 10.7 6.6 6.1 73 2.1 WNW 17 26 9 14 1016.5 1016.5 3.2
18/12:30am 10.9 6.9 6.6 75 2.0 W 17 32 9 17 1016.6 1016.6 3.2
18/12:00am 11.4 7.6 7.5 77 1.9 WNW 17 22 9 12 1016.7 1016.7 3.2
 
Date/Time
EDT
Temp
°C
App
Temp
°C
Dew
Point
°C
Rel
Hum
%
Delta-T
°C
Wind Press
QNH
hPa
Press
MSL
hPa
Rain since
9am
mm
Dir  Spd
km/h
Gust
km/h
Spd
kts
Gust
kts
17/11:30pm 11.7 7.9 7.4 75 2.1 W 17 26 9 14 1016.7 1016.7 3.2
17/11:00pm 11.8 7.4 7.5 75 2.1 W 20 30 11 16 1016.7 1016.7 3.2
17/10:30pm 11.9 6.4 7.6 75 2.1 W 26 39 14 21 1016.5 1016.5 3.2
17/10:00pm 12.3 8.1 8.2 76 2.0 WNW 20 35 11 19 1016.4 1016.4 3.2
17/09:30pm 12.6 8.7 6.9 68 2.7 W 17 30 9 16 1015.9 1015.9 3.2
17/09:00pm 12.5 9.5 9.1 80 1.7 SW 15 22 8 12 1015.4 1015.4 3.2
17/08:30pm 12.5 8.9 8.2 75 2.1 SW 17 24 9 13 1014.9 1014.9 3.2
17/08:00pm 12.4 8.8 8.5 77 1.9 WSW 17 26 9 14 1014.3 1014.3 3.2
17/07:30pm 12.0 7.1 8.3 78 1.8 WSW 24 33 13 18 1014.0 1014.0 3.2
17/07:03pm 12.0 6.3 8.3 78 1.8 WSW 28 46 15 25 1013.3 1013.3 3.2
17/07:00pm 11.9 6.6 8.4 79 1.7 WSW 26 46 14 25 1013.2 1013.2 3.2
17/06:54pm 11.8 6.1 8.3 79 1.7 WSW 28 46 15 25 1013.1 1013.1 3.2
17/06:30pm 12.1 8.4 9.5 84 1.3 W 19 32 10 17 1012.6 1012.6 3.2
17/06:21pm 12.4 8.7 9.6 83 1.4 WSW 19 30 10 16 1012.6 1012.6 3.2
17/06:01pm 12.0 8.1 9.4 84 1.3 SW 20 32 11 17 1012.3 1012.3 2.6
17/06:00pm 12.1 8.1 9.1 82 1.5 SW 20 32 11 17 1012.3 1012.3 2.0
17/05:30pm 13.1 8.8 9.4 78 1.9 SW 22 30 12 16 1011.4 1011.4 1.4
17/05:00pm 13.3 9.9 9.0 75 2.2 WSW 17 26 9 14 1010.7 1010.7 1.2
17/04:30pm 13.5 7.2 7.3 66 3.0 W 30 48 16 26 1010.2 1010.2 1.0
17/04:03pm 14.5 7.7 7.1 61 3.6 WNW 32 52 17 28 1009.7 1009.7 1.0
17/04:00pm 14.9 8.2 7.5 61 3.7 WNW 32 46 17 25 1009.8 1009.8 1.0
17/03:30pm 14.5 7.6 7.1 61 3.6 WNW 33 56 18 30 1009.7 1009.7 1.0
17/03:10pm 13.8 6.6 5.7 58 3.8 W 33 59 18 32 1009.7 1009.7 1.0
17/03:00pm 13.9 6.4 6.3 60 3.6 WNW 35 50 19 27 1009.7 1009.7 1.0
17/02:30pm 13.5 6.5 6.1 61 3.5 WNW 32 50 17 27 1010.0 1010.0 1.0
17/02:00pm 12.8 4.8 5.7 62 3.3 WNW 37 57 20 31 1010.0 1010.0 1.0
17/01:30pm 12.2 3.8 5.6 64 3.1 WNW 39 57 21 31 1009.9 1009.9 1.0
17/01:00pm 12.4 5.2 6.0 65 3.0 W 33 61 18 33 1009.6 1009.6 1.0
17/12:40pm 12.9 5.3 6.0 63 3.3 W 35 54 19 29 1009.3 1009.3 1.0
17/12:33pm 13.0 5.8 5.2 59 3.6 WNW 32 54 17 29 1009.1 1009.1 1.0
17/12:32pm 13.6 7.3 5.5 58 3.8 WNW 28 50 15 27 1009.2 1009.2 1.0
17/12:30pm 13.7 7.4 5.6 58 3.8 WNW 28 43 15 23 1009.1 1009.1 1.0
17/12:00pm 13.6 6.9 5.7 59 3.7 W 30 50 16 27 1009.3 1009.3 1.0
17/11:43am 12.5 6.1 5.4 62 3.3 WNW 28 48 15 26 1009.3 1009.3 1.0
17/11:30am 13.0 6.9 6.6 65 3.1 W 28 44 15 24 1009.3 1009.3 1.0
17/11:00am 12.1 5.0 5.7 65 3.0 W 32 46 17 25 1009.3 1009.3 1.0
17/10:30am 12.1 6.4 6.6 69 2.6 WNW 26 39 14 21 1009.3 1009.3 1.0
17/10:00am 10.0 4.9 6.0 76 1.8 WNW 22 39 12 21 1009.4 1009.4 1.0
17/09:30am 9.4 4.3 5.9 79 1.6 WNW 22 35 12 19 1009.2 1009.2 0.6
17/09:00am 9.8 3.0 5.2 73 2.1 WNW 30 43 16 23 1008.7 1008.7 9.0
17/08:30am 10.4 3.9 4.5 67 2.6 WNW 28 43 15 23 1008.5 1008.5 8.8
17/08:20am 11.0 4.5 4.7 65 2.8 WNW 28 46 15 25 1008.4 1008.4 8.8
17/08:00am 10.5 3.6 4.4 66 2.7 WNW 30 44 16 24 1008.1 1008.1 8.8
17/07:30am 10.4 5.4 4.5 67 2.6 WNW 20 39 11 21 1007.9 1007.9 8.8
17/07:00am 10.3 5.6 5.1 70 2.4 WNW 19 30 10 16 1007.3 1007.3 8.8
17/06:30am 10.0 6.6 6.0 76 1.8 NW 13 24 7 13 1006.9 1006.9 8.8
17/06:00am 10.7 7.1 6.8 77 1.8 WNW 15 30 8 16 1006.7 1006.7 8.8
17/05:30am 10.6 8.0 7.8 83 1.4 NW 11 19 6 10 1006.6 1006.6 8.8
17/05:00am 11.0 7.1 7.1 77 1.9 WNW 17 22 9 12 1006.5 1006.5 8.6
17/04:30am 10.7 5.9 7.4 80 1.6 WNW 22 35 12 19 1006.5 1006.5 8.6
17/04:00am 11.5 7.3 9.8 89 0.9 NW 22 43 12 23 1006.4 1006.4 8.6
17/03:30am 11.2 8.9 10.4 95 0.4 N 13 17 7 9 1006.1 1006.1 8.6
17/03:00am 11.6 9.5 11.0 96 0.3 NNW 13 17 7 9 1006.5 1006.5 8.6
17/02:30am 11.6 10.3 11.3 98 0.2 N 9 13 5 7 1006.6 1006.6 8.6
17/02:00am 11.4 10.6 10.9 97 0.3 N 6 9 3 5 1007.1 1007.1 8.6
17/01:30am 11.3 9.7 10.2 93 0.6 NNE 9 13 5 7 1007.5 1007.5 8.6
17/01:00am 12.2 11.3 10.6 90 0.8 WNW 6 11 3 6 1008.1 1008.1 8.6
17/12:30am 12.2 11.0 10.4 89 0.9 WNW 7 7 4 4 1008.1 1008.1 8.6
17/12:07am 12.6 12.6 11.2 91 0.7 NNW 2 6 1 3 1008.3 1008.3 8.2
17/12:00am 13.0 12.5 11.9 93 0.6 NW 6 7 3 4 1008.3 1008.3 8.0
 
Date/Time
EDT
Temp
°C
App
Temp
°C
Dew
Point
°C
Rel
Hum
%
Delta-T
°C
Wind Press
QNH
hPa
Press
MSL
hPa
Rain since
9am
mm
Dir  Spd
km/h
Gust
km/h
Spd
kts
Gust
kts
16/11:53pm 13.1 12.5 11.8 92 0.7 WNW 6 9 3 5 1008.5 1008.5 8.0
16/11:30pm 13.0 13.1 11.6 91 0.7 NNW 2 6 1 3 1008.6 1008.6 7.4
16/11:00pm 13.1 12.8 11.5 90 0.9 NNE 4 7 2 4 1008.8 1008.8 7.4
16/10:30pm 13.3 13.8 11.5 89 1.0 CALM 0 0 0 0 1009.0 1009.0 7.4
16/10:00pm 13.2 13.7 11.6 90 0.9 CALM 0 0 0 0 1009.2 1009.2 7.4
16/09:30pm 12.8 12.0 11.2 90 0.8 N 6 7 3 4 1009.1 1009.1 7.4
16/09:00pm 13.3 11.5 11.0 86 1.2 NNE 11 13 6 7 1008.8 1008.8 7.4
16/08:30pm 14.0 13.1 11.2 83 1.5 WSW 7 9 4 5 1008.9 1008.9 7.4
16/08:00pm 14.2 13.7 11.9 86 1.2 WSW 6 11 3 6 1008.9 1008.9 7.4
16/07:30pm 14.2 13.6 11.7 85 1.3 SSW 6 7 3 4 1008.5 1008.5 7.4
16/07:00pm 14.4 13.8 12.3 87 1.1 SSW 7 11 4 6 1008.3 1008.3 7.4
16/06:30pm 13.9 10.7 11.9 88 1.1 SSW 20 26 11 14 1007.8 1007.8 7.4
16/06:00pm 14.1 11.7 11.3 83 1.5 SW 15 19 8 10 1007.8 1007.8 7.4
16/05:30pm 15.5 13.9 12.8 84 1.5 WSW 13 19 7 10 1007.9 1007.9 7.2
16/05:00pm 14.4 13.4 12.4 88 1.1 WNW 9 15 5 8 1007.4 1007.4 7.2
16/04:30pm 13.8 11.9 11.7 87 1.1 WNW 13 20 7 11 1007.6 1007.6 5.8
16/04:00pm 13.7 8.7 9.7 77 2.1 W 26 39 14 21 1008.0 1008.0 3.2
16/03:51pm 14.8 9.6 11.6 81 1.7 WSW 30 50 16 27 1007.8 1007.8 0.8
16/03:49pm 15.1 10.4 11.9 81 1.7 WSW 28 50 15 27 1007.6 1007.6 0.6
16/03:30pm 19.0 16.3 10.3 57 4.7 NNW 15 28 8 15 1007.1 1007.1 0.0
16/03:00pm 19.8 15.1 10.5 55 5.0 N 26 35 14 19 1007.5 1007.5 0.0
16/02:30pm 18.8 14.3 10.1 57 4.6 NNW 24 32 13 17 1008.1 1008.1 0.0
16/02:00pm 18.2 14.4 9.8 58 4.5 NNW 20 30 11 16 1008.4 1008.4 0.0
16/01:30pm 19.3 14.8 10.0 55 5.0 NNW 24 35 13 19 1008.7 1008.7 0.0
16/01:00pm 18.7 15.2 10.3 58 4.5 NNW 19 24 10 13 1009.1 1009.1 0.0
16/12:30pm 16.5 11.6 10.1 66 3.4 N 26 32 14 17 1009.6 1009.6 0.0
16/12:00pm 15.8 12.2 9.7 67 3.2 N 19 28 10 15 1009.6 1009.6 0.0
16/11:30am 15.2 12.0 9.8 70 2.8 N 17 20 9 11 1009.9 1009.9 0.0
16/11:00am 15.3 12.6 10.3 72 2.6 N 15 20 8 11 1010.2 1010.2 0.0
16/10:30am 14.4 11.1 9.6 73 2.5 N 17 22 9 12 1010.6 1010.6 0.0
16/10:00am 14.2 11.9 10.4 78 2.0 N 13 19 7 10 1010.9 1010.9 0.0
16/09:30am 14.0 11.9 9.8 76 2.2 N 11 13 6 7 1010.8 1010.8 0.0
16/09:00am 13.3 11.1 9.5 78 1.9 ENE 11 13 6 7 1010.4 1010.4 0.0
16/08:30am 12.7 11.0 9.9 83 1.4 E 9 11 5 6 1010.9 1010.9 0.0
16/08:00am 12.4 10.3 9.6 83 1.4 ESE 11 15 6 8 1011.3 1011.3 0.0
16/07:30am 12.4 10.5 9.1 80 1.7 S 9 13 5 7 1011.6 1011.6 0.0
16/07:00am 12.4 12.1 8.5 77 1.9 CALM 0 0 0 0 1011.4 1011.4 0.0
16/06:30am 12.1 11.8 8.6 79 1.7 CALM 0 0 0 0 1011.4 1011.4 0.0
16/06:00am 12.4 10.8 8.7 78 1.8 ENE 7 9 4 5 1011.3 1011.3 0.0

Other formats

Comma delimited format used in spreadsheet applications
http://www.bom.gov.au/fwo/IDV60801/IDV60801.94870.axf

JavaScript Object Notation format (JSON) in row-major order
http://www.bom.gov.au/fwo/IDV60801/IDV60801.94870.json

Data quality

Most of these data are generated automatically and are frequently updated. Quality checks on data are not normally performed. It is possible for incorrect values to appear. Refer to information at About Latest Weather Observations and please check the disclaimer before using these data.